sensor_id;sensor_type;location;lat;lon;timestamp;pressure;altitude;pressure_sealevel;temperature;humidity
64675;BME280;51090;51.512;11.332;2023-06-22T00:01:10;99693.84;;;23.14;100.00
64675;BME280;51090;51.512;11.332;2023-06-22T00:03:36;99697.31;;;23.09;100.00
64675;BME280;51090;51.512;11.332;2023-06-22T00:06:02;99693.16;;;22.96;100.00
64675;BME280;51090;51.512;11.332;2023-06-22T00:08:27;99690.66;;;22.85;100.00
64675;BME280;51090;51.512;11.332;2023-06-22T00:10:53;99690.81;;;22.73;100.00
64675;BME280;51090;51.512;11.332;2023-06-22T00:13:19;99690.50;;;22.64;100.00
64675;BME280;51090;51.512;11.332;2023-06-22T00:15:45;99694.53;;;22.61;100.00
64675;BME280;51090;51.512;11.332;2023-06-22T00:18:11;99693.44;;;22.63;100.00
64675;BME280;51090;51.512;11.332;2023-06-22T00:20:39;99695.84;;;22.59;100.00
64675;BME280;51090;51.512;11.332;2023-06-22T00:23:06;99680.41;;;22.54;100.00
64675;BME280;51090;51.512;11.332;2023-06-22T00:25:39;99683.06;;;22.49;100.00
64675;BME280;51090;51.512;11.332;2023-06-22T00:28:08;99682.97;;;22.39;100.00
64675;BME280;51090;51.512;11.332;2023-06-22T00:30:35;99687.75;;;22.32;100.00
64675;BME280;51090;51.512;11.332;2023-06-22T00:33:01;99689.38;;;22.28;100.00
64675;BME280;51090;51.512;11.332;2023-06-22T00:35:28;99688.00;;;22.25;100.00
64675;BME280;51090;51.512;11.332;2023-06-22T00:37:59;99688.28;;;22.29;100.00
64675;BME280;51090;51.512;11.332;2023-06-22T00:40:31;99688.75;;;22.21;100.00
64675;BME280;51090;51.512;11.332;2023-06-22T00:42:58;99687.34;;;22.18;100.00
64675;BME280;51090;51.512;11.332;2023-06-22T00:45:24;99702.00;;;22.22;100.00
64675;BME280;51090;51.512;11.332;2023-06-22T00:47:57;99702.75;;;22.17;100.00
64675;BME280;51090;51.512;11.332;2023-06-22T00:50:25;99710.75;;;22.07;100.00
64675;BME280;51090;51.512;11.332;2023-06-22T00:52:56;99716.31;;;22.01;100.00
64675;BME280;51090;51.512;11.332;2023-06-22T00:55:23;99720.41;;;22.03;100.00
64675;BME280;51090;51.512;11.332;2023-06-22T00:57:49;99717.25;;;22.11;100.00
64675;BME280;51090;51.512;11.332;2023-06-22T01:00:16;99722.25;;;22.20;100.00
64675;BME280;51090;51.512;11.332;2023-06-22T01:02:46;99701.09;;;22.16;100.00
64675;BME280;51090;51.512;11.332;2023-06-22T01:05:17;99703.88;;;22.22;100.00
64675;BME280;51090;51.512;11.332;2023-06-22T01:11:32;99686.84;;;21.94;100.00
64675;BME280;51090;51.512;11.332;2023-06-22T01:14:10;99689.44;;;21.84;100.00
64675;BME280;51090;51.512;11.332;2023-06-22T01:16:41;99688.72;;;21.71;100.00
64675;BME280;51090;51.512;11.332;2023-06-22T01:19:45;99685.59;;;21.58;100.00
64675;BME280;51090;51.512;11.332;2023-06-22T01:22:25;99681.88;;;21.42;100.00
64675;BME280;51090;51.512;11.332;2023-06-22T01:25:13;99673.47;;;21.38;100.00
64675;BME280;51090;51.512;11.332;2023-06-22T01:27:58;99671.00;;;21.37;100.00
64675;BME280;51090;51.512;11.332;2023-06-22T01:30:30;99669.38;;;21.36;100.00
64675;BME280;51090;51.512;11.332;2023-06-22T01:33:00;99660.94;;;21.32;100.00
64675;BME280;51090;51.512;11.332;2023-06-22T01:35:27;99662.84;;;21.31;100.00
64675;BME280;51090;51.512;11.332;2023-06-22T01:37:52;99668.44;;;21.25;100.00
64675;BME280;51090;51.512;11.332;2023-06-22T01:40:20;99676.44;;;21.20;100.00
64675;BME280;51090;51.512;11.332;2023-06-22T01:42:47;99670.91;;;21.09;100.00
64675;BME280;51090;51.512;11.332;2023-06-22T01:45:14;99675.59;;;20.97;100.00
64675;BME280;51090;51.512;11.332;2023-06-22T01:47:41;99670.63;;;20.89;100.00
64675;BME280;51090;51.512;11.332;2023-06-22T01:50:07;99662.97;;;20.81;100.00
64675;BME280;51090;51.512;11.332;2023-06-22T01:52:34;99652.34;;;20.74;100.00
64675;BME280;51090;51.512;11.332;2023-06-22T01:55:00;99643.66;;;20.72;100.00
64675;BME280;51090;51.512;11.332;2023-06-22T01:57:27;99643.09;;;20.70;100.00
64675;BME280;51090;51.512;11.332;2023-06-22T02:02:24;99651.19;;;20.87;100.00
64675;BME280;51090;51.512;11.332;2023-06-22T02:05:05;99647.75;;;20.92;100.00
64675;BME280;51090;51.512;11.332;2023-06-22T02:07:39;99650.44;;;20.92;100.00
64675;BME280;51090;51.512;11.332;2023-06-22T02:10:08;99634.94;;;20.82;100.00
64675;BME280;51090;51.512;11.332;2023-06-22T02:12:37;99642.28;;;20.86;100.00
64675;BME280;51090;51.512;11.332;2023-06-22T02:15:05;99638.69;;;20.81;100.00
64675;BME280;51090;51.512;11.332;2023-06-22T02:17:32;99634.34;;;20.80;100.00
64675;BME280;51090;51.512;11.332;2023-06-22T02:19:59;99639.25;;;20.83;100.00
64675;BME280;51090;51.512;11.332;2023-06-22T02:22:24;99634.13;;;20.81;100.00
64675;BME280;51090;51.512;11.332;2023-06-22T02:24:50;99636.31;;;20.84;100.00
64675;BME280;51090;51.512;11.332;2023-06-22T02:27:16;99631.16;;;20.83;100.00
64675;BME280;51090;51.512;11.332;2023-06-22T02:29:41;99633.69;;;20.73;100.00
64675;BME280;51090;51.512;11.332;2023-06-22T02:32:07;99626.38;;;20.68;100.00
64675;BME280;51090;51.512;11.332;2023-06-22T02:34:33;99626.19;;;20.75;100.00
64675;BME280;51090;51.512;11.332;2023-06-22T02:36:59;99625.22;;;20.81;100.00
64675;BME280;51090;51.512;11.332;2023-06-22T02:39:25;99635.81;;;20.87;100.00
64675;BME280;51090;51.512;11.332;2023-06-22T02:41:53;99633.53;;;20.96;100.00
64675;BME280;51090;51.512;11.332;2023-06-22T02:44:20;99636.59;;;21.05;100.00
64675;BME280;51090;51.512;11.332;2023-06-22T02:46:47;99632.31;;;21.09;100.00
64675;BME280;51090;51.512;11.332;2023-06-22T02:49:13;99624.00;;;21.10;100.00
64675;BME280;51090;51.512;11.332;2023-06-22T02:51:44;99621.47;;;21.04;100.00
64675;BME280;51090;51.512;11.332;2023-06-22T02:54:10;99631.00;;;20.90;100.00
64675;BME280;51090;51.512;11.332;2023-06-22T02:56:36;99635.66;;;20.77;100.00
64675;BME280;51090;51.512;11.332;2023-06-22T02:59:02;99647.53;;;20.76;100.00
64675;BME280;51090;51.512;11.332;2023-06-22T03:01:29;99643.50;;;20.79;100.00
64675;BME280;51090;51.512;11.332;2023-06-22T03:03:56;99656.06;;;20.90;100.00
64675;BME280;51090;51.512;11.332;2023-06-22T03:06:23;99664.53;;;20.99;100.00
64675;BME280;51090;51.512;11.332;2023-06-22T03:08:50;99660.28;;;21.03;100.00
64675;BME280;51090;51.512;11.332;2023-06-22T03:11:16;99661.91;;;21.04;100.00
64675;BME280;51090;51.512;11.332;2023-06-22T03:13:41;99663.06;;;21.08;100.00
64675;BME280;51090;51.512;11.332;2023-06-22T03:16:07;99672.53;;;21.10;100.00
64675;BME280;51090;51.512;11.332;2023-06-22T03:18:33;99676.63;;;21.13;100.00
64675;BME280;51090;51.512;11.332;2023-06-22T03:20:58;99682.59;;;21.15;100.00
64675;BME280;51090;51.512;11.332;2023-06-22T03:23:24;99687.25;;;21.20;100.00
64675;BME280;51090;51.512;11.332;2023-06-22T03:25:50;99690.75;;;21.20;100.00
64675;BME280;51090;51.512;11.332;2023-06-22T03:28:16;99698.34;;;21.23;100.00
64675;BME280;51090;51.512;11.332;2023-06-22T03:30:41;99710.28;;;21.27;100.00
64675;BME280;51090;51.512;11.332;2023-06-22T03:33:07;99719.25;;;21.33;100.00
64675;BME280;51090;51.512;11.332;2023-06-22T03:35:33;99707.66;;;21.33;100.00
64675;BME280;51090;51.512;11.332;2023-06-22T03:37:58;99719.53;;;21.37;100.00
64675;BME280;51090;51.512;11.332;2023-06-22T03:40:24;99722.16;;;21.31;100.00
64675;BME280;51090;51.512;11.332;2023-06-22T03:42:50;99725.94;;;21.30;100.00
64675;BME280;51090;51.512;11.332;2023-06-22T03:45:15;99737.72;;;21.41;100.00
64675;BME280;51090;51.512;11.332;2023-06-22T03:50:07;99747.50;;;21.47;100.00
64675;BME280;51090;51.512;11.332;2023-06-22T03:52:33;99752.22;;;21.57;100.00
64675;BME280;51090;51.512;11.332;2023-06-22T03:54:59;99755.81;;;21.63;100.00
64675;BME280;51090;51.512;11.332;2023-06-22T03:57:24;99759.41;;;21.68;100.00
64675;BME280;51090;51.512;11.332;2023-06-22T03:59:50;99753.56;;;21.77;100.00
64675;BME280;51090;51.512;11.332;2023-06-22T04:02:16;99758.16;;;21.76;100.00
64675;BME280;51090;51.512;11.332;2023-06-22T04:04:41;99749.50;;;21.74;100.00
64675;BME280;51090;51.512;11.332;2023-06-22T04:07:07;99750.81;;;21.71;100.00
64675;BME280;51090;51.512;11.332;2023-06-22T04:09:34;99748.28;;;21.65;100.00
64675;BME280;51090;51.512;11.332;2023-06-22T04:12:01;99752.13;;;21.69;100.00
64675;BME280;51090;51.512;11.332;2023-06-22T04:14:27;99750.53;;;21.73;100.00
64675;BME280;51090;51.512;11.332;2023-06-22T04:16:52;99743.34;;;21.79;100.00
64675;BME280;51090;51.512;11.332;2023-06-22T04:19:18;99739.88;;;21.83;100.00
64675;BME280;51090;51.512;11.332;2023-06-22T04:21:44;99747.22;;;21.88;100.00
64675;BME280;51090;51.512;11.332;2023-06-22T04:24:11;99748.03;;;21.88;100.00
64675;BME280;51090;51.512;11.332;2023-06-22T04:26:37;99733.59;;;21.78;100.00
64675;BME280;51090;51.512;11.332;2023-06-22T04:29:04;99727.56;;;21.70;100.00
64675;BME280;51090;51.512;11.332;2023-06-22T04:31:32;99727.50;;;21.65;100.00
64675;BME280;51090;51.512;11.332;2023-06-22T04:34:06;99722.63;;;21.62;100.00
64675;BME280;51090;51.512;11.332;2023-06-22T04:36:40;99720.78;;;21.68;100.00
64675;BME280;51090;51.512;11.332;2023-06-22T04:39:10;99719.28;;;21.77;100.00
64675;BME280;51090;51.512;11.332;2023-06-22T04:41:40;99710.19;;;21.83;100.00
64675;BME280;51090;51.512;11.332;2023-06-22T04:44:13;99707.81;;;21.87;100.00
64675;BME280;51090;51.512;11.332;2023-06-22T04:46:39;99699.13;;;21.85;100.00
64675;BME280;51090;51.512;11.332;2023-06-22T04:49:07;99687.78;;;21.83;100.00
64675;BME280;51090;51.512;11.332;2023-06-22T04:51:42;99672.09;;;21.80;100.00
64675;BME280;51090;51.512;11.332;2023-06-22T04:54:09;99665.56;;;21.75;100.00
64675;BME280;51090;51.512;11.332;2023-06-22T04:56:35;99663.63;;;21.71;100.00
64675;BME280;51090;51.512;11.332;2023-06-22T04:59:01;99661.88;;;21.60;100.00
64675;BME280;51090;51.512;11.332;2023-06-22T05:01:28;99665.25;;;21.50;100.00
64675;BME280;51090;51.512;11.332;2023-06-22T05:03:54;99667.25;;;21.38;100.00
64675;BME280;51090;51.512;11.332;2023-06-22T05:06:22;99669.47;;;21.41;100.00
64675;BME280;51090;51.512;11.332;2023-06-22T05:08:53;99654.72;;;21.48;100.00
64675;BME280;51090;51.512;11.332;2023-06-22T05:11:27;99657.16;;;21.72;100.00
64675;BME280;51090;51.512;11.332;2023-06-22T05:13:53;99647.16;;;21.72;100.00
64675;BME280;51090;51.512;11.332;2023-06-22T05:16:20;99639.59;;;21.69;100.00
64675;BME280;51090;51.512;11.332;2023-06-22T05:18:53;99630.06;;;21.62;100.00
64675;BME280;51090;51.512;11.332;2023-06-22T05:21:27;99629.81;;;21.63;100.00
64675;BME280;51090;51.512;11.332;2023-06-22T05:23:53;99621.50;;;21.70;100.00
64675;BME280;51090;51.512;11.332;2023-06-22T05:26:20;99620.69;;;21.69;100.00
64675;BME280;51090;51.512;11.332;2023-06-22T05:28:47;99627.00;;;21.80;100.00
64675;BME280;51090;51.512;11.332;2023-06-22T05:31:17;99633.88;;;21.93;100.00
64675;BME280;51090;51.512;11.332;2023-06-22T05:33:44;99637.25;;;22.05;100.00
64675;BME280;51090;51.512;11.332;2023-06-22T05:36:10;99638.97;;;22.16;100.00
64675;BME280;51090;51.512;11.332;2023-06-22T05:38:36;99632.06;;;22.26;100.00
64675;BME280;51090;51.512;11.332;2023-06-22T05:41:02;99640.03;;;22.43;100.00
64675;BME280;51090;51.512;11.332;2023-06-22T05:43:28;99632.03;;;22.58;100.00
64675;BME280;51090;51.512;11.332;2023-06-22T05:45:54;99644.09;;;22.77;100.00
64675;BME280;51090;51.512;11.332;2023-06-22T05:48:20;99645.81;;;22.94;100.00
64675;BME280;51090;51.512;11.332;2023-06-22T05:50:45;99659.19;;;23.11;100.00
64675;BME280;51090;51.512;11.332;2023-06-22T05:53:11;99655.97;;;23.14;100.00
64675;BME280;51090;51.512;11.332;2023-06-22T05:55:37;99651.34;;;23.09;100.00
64675;BME280;51090;51.512;11.332;2023-06-22T05:58:02;99650.25;;;23.05;100.00
64675;BME280;51090;51.512;11.332;2023-06-22T06:00:32;99651.22;;;22.94;100.00
64675;BME280;51090;51.512;11.332;2023-06-22T06:02:57;99643.63;;;22.91;100.00
64675;BME280;51090;51.512;11.332;2023-06-22T06:05:29;99644.44;;;22.91;100.00
64675;BME280;51090;51.512;11.332;2023-06-22T06:07:55;99649.59;;;22.93;100.00
64675;BME280;51090;51.512;11.332;2023-06-22T06:10:21;99651.59;;;23.02;100.00
64675;BME280;51090;51.512;11.332;2023-06-22T06:12:47;99654.34;;;23.13;100.00
64675;BME280;51090;51.512;11.332;2023-06-22T06:15:12;99648.19;;;23.22;100.00
64675;BME280;51090;51.512;11.332;2023-06-22T06:17:52;99660.66;;;23.34;100.00
64675;BME280;51090;51.512;11.332;2023-06-22T06:20:22;99669.41;;;23.46;100.00
64675;BME280;51090;51.512;11.332;2023-06-22T06:22:48;99671.28;;;23.45;100.00
64675;BME280;51090;51.512;11.332;2023-06-22T06:25:14;99672.94;;;23.52;100.00
64675;BME280;51090;51.512;11.332;2023-06-22T06:27:46;99679.97;;;23.58;100.00
64675;BME280;51090;51.512;11.332;2023-06-22T06:30:13;99668.09;;;23.59;100.00
64675;BME280;51090;51.512;11.332;2023-06-22T06:32:40;99667.03;;;23.65;100.00
64675;BME280;51090;51.512;11.332;2023-06-22T06:35:07;99661.66;;;23.75;100.00
64675;BME280;51090;51.512;11.332;2023-06-22T06:37:37;99660.91;;;23.95;100.00
64675;BME280;51090;51.512;11.332;2023-06-22T06:40:07;99656.34;;;24.21;100.00
64675;BME280;51090;51.512;11.332;2023-06-22T06:42:37;99643.09;;;24.45;100.00
64675;BME280;51090;51.512;11.332;2023-06-22T06:45:05;99647.69;;;24.75;100.00
64675;BME280;51090;51.512;11.332;2023-06-22T06:47:31;99638.47;;;24.82;100.00
64675;BME280;51090;51.512;11.332;2023-06-22T06:49:56;99648.19;;;24.98;100.00
64675;BME280;51090;51.512;11.332;2023-06-22T06:52:22;99644.88;;;25.27;100.00
64675;BME280;51090;51.512;11.332;2023-06-22T06:54:48;99650.44;;;25.61;100.00
64675;BME280;51090;51.512;11.332;2023-06-22T06:57:14;99658.75;;;25.90;100.00
64675;BME280;51090;51.512;11.332;2023-06-22T06:59:40;99650.66;;;26.19;100.00
64675;BME280;51090;51.512;11.332;2023-06-22T07:02:07;99644.31;;;26.34;100.00
64675;BME280;51090;51.512;11.332;2023-06-22T07:04:33;99643.66;;;26.47;100.00
64675;BME280;51090;51.512;11.332;2023-06-22T07:07:01;99650.59;;;26.64;100.00
64675;BME280;51090;51.512;11.332;2023-06-22T07:09:27;99643.41;;;26.78;100.00
64675;BME280;51090;51.512;11.332;2023-06-22T07:11:53;99640.41;;;27.04;100.00
64675;BME280;51090;51.512;11.332;2023-06-22T07:14:18;99644.78;;;27.29;100.00
64675;BME280;51090;51.512;11.332;2023-06-22T07:16:44;99649.19;;;27.49;100.00
64675;BME280;51090;51.512;11.332;2023-06-22T07:19:11;99648.41;;;27.67;100.00
64675;BME280;51090;51.512;11.332;2023-06-22T07:21:38;99650.94;;;27.83;100.00
64675;BME280;51090;51.512;11.332;2023-06-22T07:24:05;99644.69;;;28.01;100.00
64675;BME280;51090;51.512;11.332;2023-06-22T07:26:33;99648.94;;;28.26;100.00
64675;BME280;51090;51.512;11.332;2023-06-22T07:28:59;99653.91;;;28.57;100.00
64675;BME280;51090;51.512;11.332;2023-06-22T07:31:25;99653.03;;;28.75;100.00
64675;BME280;51090;51.512;11.332;2023-06-22T07:33:51;99653.66;;;28.86;100.00
64675;BME280;51090;51.512;11.332;2023-06-22T07:36:17;99662.75;;;28.95;100.00
64675;BME280;51090;51.512;11.332;2023-06-22T07:38:44;99650.50;;;28.93;100.00
64675;BME280;51090;51.512;11.332;2023-06-22T07:41:09;99655.31;;;29.01;100.00
64675;BME280;51090;51.512;11.332;2023-06-22T07:43:35;99660.28;;;29.13;100.00
64675;BME280;51090;51.512;11.332;2023-06-22T07:46:03;99647.94;;;29.15;100.00
64675;BME280;51090;51.512;11.332;2023-06-22T07:48:29;99648.63;;;29.21;100.00
64675;BME280;51090;51.512;11.332;2023-06-22T07:50:55;99649.56;;;29.30;100.00
64675;BME280;51090;51.512;11.332;2023-06-22T07:53:21;99649.56;;;29.30;89.67
64675;BME280;51090;51.512;11.332;2023-06-22T07:55:49;99642.06;;;29.49;100.00
64675;BME280;51090;51.512;11.332;2023-06-22T07:58:14;99642.25;;;29.67;100.00
64675;BME280;51090;51.512;11.332;2023-06-22T08:00:41;99639.44;;;29.94;99.57
64675;BME280;51090;51.512;11.332;2023-06-22T08:03:07;99651.63;;;30.25;97.70
64675;BME280;51090;51.512;11.332;2023-06-22T08:05:32;99649.81;;;30.43;94.25
64675;BME280;51090;51.512;11.332;2023-06-22T08:07:58;99649.03;;;30.42;86.00
64675;BME280;51090;51.512;11.332;2023-06-22T08:10:25;99642.25;;;30.40;87.13
64675;BME280;51090;51.512;11.332;2023-06-22T08:12:51;99631.09;;;30.36;95.18
64675;BME280;51090;51.512;11.332;2023-06-22T08:15:17;99645.53;;;30.50;85.66
64675;BME280;51090;51.512;11.332;2023-06-22T08:17:44;99636.03;;;30.48;87.06
64675;BME280;51090;51.512;11.332;2023-06-22T08:20:11;99635.59;;;30.32;86.97
64675;BME280;51090;51.512;11.332;2023-06-22T08:22:41;99646.03;;;30.16;82.71
64675;BME280;51090;51.512;11.332;2023-06-22T08:25:08;99645.31;;;30.02;83.02
64675;BME280;51090;51.512;11.332;2023-06-22T08:27:34;99641.38;;;29.94;84.30
64675;BME280;51090;51.512;11.332;2023-06-22T08:30:01;99635.22;;;29.88;79.88
64675;BME280;51090;51.512;11.332;2023-06-22T08:32:28;99634.28;;;29.70;83.22
64675;BME280;51090;51.512;11.332;2023-06-22T08:34:55;99640.31;;;29.53;84.88
64675;BME280;51090;51.512;11.332;2023-06-22T08:37:21;99637.53;;;29.45;92.36
64675;BME280;51090;51.512;11.332;2023-06-22T08:39:57;99636.00;;;29.39;93.23
64675;BME280;51090;51.512;11.332;2023-06-22T08:42:22;99641.56;;;29.34;85.99
64675;BME280;51090;51.512;11.332;2023-06-22T08:44:50;99634.88;;;29.26;89.46
64675;BME280;51090;51.512;11.332;2023-06-22T08:47:15;99638.03;;;29.19;84.47
64675;BME280;51090;51.512;11.332;2023-06-22T08:49:41;99642.06;;;29.08;86.25
64675;BME280;51090;51.512;11.332;2023-06-22T08:52:07;99644.56;;;29.04;91.87
64675;BME280;51090;51.512;11.332;2023-06-22T08:54:33;99638.03;;;29.05;93.24
64675;BME280;51090;51.512;11.332;2023-06-22T08:57:01;99635.69;;;28.99;90.53
64675;BME280;51090;51.512;11.332;2023-06-22T08:59:26;99637.09;;;28.96;92.82
64675;BME280;51090;51.512;11.332;2023-06-22T09:01:52;99633.84;;;28.94;91.67
64675;BME280;51090;51.512;11.332;2023-06-22T09:04:18;99624.63;;;28.90;92.21
64675;BME280;51090;51.512;11.332;2023-06-22T09:06:43;99620.41;;;28.84;90.51
64675;BME280;51090;51.512;11.332;2023-06-22T09:09:13;99616.44;;;28.76;90.79
64675;BME280;51090;51.512;11.332;2023-06-22T09:11:42;99595.41;;;28.63;94.07
64675;BME280;51090;51.512;11.332;2023-06-22T09:14:08;99611.31;;;28.75;95.03
64675;BME280;51090;51.512;11.332;2023-06-22T09:16:34;99613.53;;;28.73;95.37
64675;BME280;51090;51.512;11.332;2023-06-22T09:19:00;99613.53;;;28.73;96.19
64675;BME280;51090;51.512;11.332;2023-06-22T09:21:26;99610.28;;;28.71;92.15
64675;BME280;51090;51.512;11.332;2023-06-22T09:23:51;99605.44;;;28.68;93.45
64675;BME280;51090;51.512;11.332;2023-06-22T09:26:18;99609.25;;;28.66;91.78
64675;BME280;51090;51.512;11.332;2023-06-22T09:28:44;99600.34;;;28.61;92.78
64675;BME280;51090;51.512;11.332;2023-06-22T09:31:10;99599.53;;;28.60;94.76
64675;BME280;51090;51.512;11.332;2023-06-22T09:33:37;99604.00;;;28.70;97.08
64675;BME280;51090;51.512;11.332;2023-06-22T09:36:07;99587.66;;;28.84;95.24
64675;BME280;51090;51.512;11.332;2023-06-22T09:38:39;99599.00;;;29.05;93.15
64675;BME280;51090;51.512;11.332;2023-06-22T09:41:05;99581.09;;;29.13;91.82
64675;BME280;51090;51.512;11.332;2023-06-22T09:43:32;99588.47;;;29.26;89.65
64675;BME280;51090;51.512;11.332;2023-06-22T09:46:00;99580.56;;;29.38;89.82
64675;BME280;51090;51.512;11.332;2023-06-22T09:48:28;99565.06;;;29.47;90.91
64675;BME280;51090;51.512;11.332;2023-06-22T09:50:54;99571.63;;;29.60;92.11
64675;BME280;51090;51.512;11.332;2023-06-22T09:53:20;99574.16;;;29.70;91.75
64675;BME280;51090;51.512;11.332;2023-06-22T09:55:46;99561.97;;;29.77;88.31
64675;BME280;51090;51.512;11.332;2023-06-22T09:58:12;99565.72;;;29.81;89.08
64675;BME280;51090;51.512;11.332;2023-06-22T10:00:38;99567.53;;;29.85;90.06
64675;BME280;51090;51.512;11.332;2023-06-22T10:03:04;99569.28;;;29.90;92.18
64675;BME280;51090;51.512;11.332;2023-06-22T10:05:29;99555.50;;;29.95;80.25
64675;BME280;51090;51.512;11.332;2023-06-22T10:07:55;99554.44;;;30.05;84.29
64675;BME280;51090;51.512;11.332;2023-06-22T10:10:21;99565.25;;;30.10;78.07
64675;BME280;51090;51.512;11.332;2023-06-22T10:12:54;99549.53;;;30.15;77.47
64675;BME280;51090;51.512;11.332;2023-06-22T10:15:19;99557.84;;;30.24;86.23
64675;BME280;51090;51.512;11.332;2023-06-22T10:17:47;99546.06;;;30.24;82.52
64675;BME280;51090;51.512;11.332;2023-06-22T10:20:13;99549.09;;;30.22;83.23
64675;BME280;51090;51.512;11.332;2023-06-22T10:22:44;99542.47;;;30.14;74.29
64675;BME280;51090;51.512;11.332;2023-06-22T10:25:11;99552.09;;;30.12;82.97
64675;BME280;51090;51.512;11.332;2023-06-22T10:27:38;99552.47;;;30.19;81.89
64675;BME280;51090;51.512;11.332;2023-06-22T10:30:11;99542.00;;;30.21;74.59
64675;BME280;51090;51.512;11.332;2023-06-22T10:32:42;99537.84;;;30.24;81.81
64675;BME280;51090;51.512;11.332;2023-06-22T10:35:08;99542.09;;;30.30;76.31
64675;BME280;51090;51.512;11.332;2023-06-22T10:37:36;99532.69;;;30.22;75.09
64675;BME280;51090;51.512;11.332;2023-06-22T10:40:03;99532.59;;;30.27;79.77
64675;BME280;51090;51.512;11.332;2023-06-22T10:42:29;99527.63;;;30.29;78.69
64675;BME280;51090;51.512;11.332;2023-06-22T10:44:55;99531.66;;;30.32;77.00
64675;BME280;51090;51.512;11.332;2023-06-22T10:47:20;99524.91;;;30.38;77.22
64675;BME280;51090;51.512;11.332;2023-06-22T10:49:46;99519.75;;;30.36;68.27
64675;BME280;51090;51.512;11.332;2023-06-22T10:52:12;99518.41;;;30.25;73.54
64675;BME280;51090;51.512;11.332;2023-06-22T10:54:38;99515.69;;;30.25;68.36
64675;BME280;51090;51.512;11.332;2023-06-22T10:57:04;99508.78;;;30.28;68.41
64675;BME280;51090;51.512;11.332;2023-06-22T10:59:30;99515.91;;;30.37;75.27
64675;BME280;51090;51.512;11.332;2023-06-22T11:01:56;99510.28;;;30.43;73.64
64675;BME280;51090;51.512;11.332;2023-06-22T11:04:23;99512.25;;;30.51;72.12
64675;BME280;51090;51.512;11.332;2023-06-22T11:06:49;99504.91;;;30.60;70.27
64675;BME280;51090;51.512;11.332;2023-06-22T11:09:15;99507.19;;;30.75;75.28
64675;BME280;51090;51.512;11.332;2023-06-22T11:11:49;99498.84;;;30.80;72.93
64675;BME280;51090;51.512;11.332;2023-06-22T11:14:15;99504.81;;;30.83;67.73
64675;BME280;51090;51.512;11.332;2023-06-22T11:16:41;99498.88;;;30.98;71.37
64675;BME280;51090;51.512;11.332;2023-06-22T11:19:07;99492.81;;;31.10;69.70
64675;BME280;51090;51.512;11.332;2023-06-22T11:21:32;99505.19;;;31.16;72.14
64675;BME280;51090;51.512;11.332;2023-06-22T11:23:59;99500.84;;;31.23;69.00
64675;BME280;51090;51.512;11.332;2023-06-22T11:26:25;99493.47;;;31.33;68.25
64675;BME280;51090;51.512;11.332;2023-06-22T11:28:54;99493.47;;;31.33;66.28
64675;BME280;51090;51.512;11.332;2023-06-22T11:31:20;99493.78;;;31.31;65.30
64675;BME280;51090;51.512;11.332;2023-06-22T11:33:45;99485.75;;;31.35;69.37
64675;BME280;51090;51.512;11.332;2023-06-22T11:36:12;99483.50;;;31.37;62.92
64675;BME280;51090;51.512;11.332;2023-06-22T11:38:38;99482.53;;;31.41;60.03
64675;BME280;51090;51.512;11.332;2023-06-22T11:41:06;99474.47;;;31.45;66.93
64675;BME280;51090;51.512;11.332;2023-06-22T11:43:32;99468.81;;;31.33;62.53
64675;BME280;51090;51.512;11.332;2023-06-22T11:45:58;99469.13;;;31.31;64.74
64675;BME280;51090;51.512;11.332;2023-06-22T11:48:26;99466.41;;;31.49;63.65
64675;BME280;51090;51.512;11.332;2023-06-22T11:50:52;99457.84;;;31.67;66.92
64675;BME280;51090;51.512;11.332;2023-06-22T11:53:18;99450.59;;;31.72;60.45
64675;BME280;51090;51.512;11.332;2023-06-22T11:55:44;99445.91;;;31.81;56.05
64675;BME280;51090;51.512;11.332;2023-06-22T11:58:10;99442.31;;;31.89;63.66
64675;BME280;51090;51.512;11.332;2023-06-22T12:00:37;99442.97;;;31.95;60.69
64675;BME280;51090;51.512;11.332;2023-06-22T12:03:03;99428.94;;;31.87;61.17
64675;BME280;51090;51.512;11.332;2023-06-22T12:05:28;99431.84;;;31.91;61.33
64675;BME280;51090;51.512;11.332;2023-06-22T12:07:54;99395.75;;;31.72;59.04
64675;BME280;51090;51.512;11.332;2023-06-22T12:10:22;99420.25;;;31.94;61.57
64675;BME280;51090;51.512;11.332;2023-06-22T12:12:48;99419.91;;;31.96;61.35
64675;BME280;51090;51.512;11.332;2023-06-22T12:15:14;99425.19;;;32.01;61.21
64675;BME280;51090;51.512;11.332;2023-06-22T12:17:40;99423.38;;;32.14;60.13
64675;BME280;51090;51.512;11.332;2023-06-22T12:20:07;99412.50;;;32.35;60.65
64675;BME280;51090;51.512;11.332;2023-06-22T12:22:33;99411.13;;;32.49;57.44
64675;BME280;51090;51.512;11.332;2023-06-22T12:24:59;99411.41;;;32.57;52.70
64675;BME280;51090;51.512;11.332;2023-06-22T12:27:25;99400.25;;;32.62;56.15
64675;BME280;51090;51.512;11.332;2023-06-22T12:29:51;99395.84;;;32.69;59.56
64675;BME280;51090;51.512;11.332;2023-06-22T12:32:17;99394.03;;;32.73;53.48
64675;BME280;51090;51.512;11.332;2023-06-22T12:34:43;99380.50;;;32.68;47.59
64675;BME280;51090;51.512;11.332;2023-06-22T12:37:09;99374.81;;;32.73;54.70
64675;BME280;51090;51.512;11.332;2023-06-22T12:39:35;99368.38;;;32.69;52.78
64675;BME280;51090;51.512;11.332;2023-06-22T12:42:01;99367.25;;;32.70;56.84
64675;BME280;51090;51.512;11.332;2023-06-22T12:44:26;99366.63;;;32.65;52.18
64675;BME280;51090;51.512;11.332;2023-06-22T12:46:52;99360.34;;;32.64;53.65
64675;BME280;51090;51.512;11.332;2023-06-22T12:49:18;99355.41;;;32.58;47.59
64675;BME280;51090;51.512;11.332;2023-06-22T12:51:45;99352.69;;;32.49;49.53